createdAt,value
2022-10-28T00:01:24.702Z,47.80
2022-10-28T00:03:58.708Z,45.70
2022-10-28T00:06:32.545Z,53.70
2022-10-28T00:09:01.539Z,54.40
2022-10-28T00:11:34.849Z,50.00
2022-10-28T00:14:06.014Z,56.80
2022-10-28T00:16:37.144Z,54.30
2022-10-28T00:19:07.562Z,50.00
2022-10-28T00:21:38.514Z,50.40
2022-10-28T00:24:08.870Z,36.30
2022-10-28T00:26:42.286Z,51.70
2022-10-28T00:29:16.801Z,55.00
2022-10-28T00:31:47.105Z,49.10
2022-10-28T00:34:17.867Z,54.30
2022-10-28T00:36:47.608Z,50.40
2022-10-28T00:39:25.869Z,53.60
2022-10-28T00:41:59.410Z,51.50
2022-10-28T00:45:00.737Z,55.00
2022-10-28T00:48:03.081Z,51.60
2022-10-28T00:50:43.492Z,56.20
2022-10-28T00:53:19.023Z,54.50
2022-10-28T00:55:49.308Z,56.80
2022-10-28T00:58:20.995Z,54.10
2022-10-28T01:00:48.721Z,56.60
2022-10-28T01:03:17.795Z,54.50
2022-10-28T01:05:49.049Z,53.90
2022-10-28T01:08:17.736Z,58.30
2022-10-28T01:11:15.985Z,54.90
2022-10-28T01:14:09.214Z,64.60
2022-10-28T01:17:01.664Z,60.80
2022-10-28T01:20:14.494Z,56.80
2022-10-28T01:22:58.713Z,53.40
2022-10-28T01:25:58.169Z,54.30
2022-10-28T01:29:00.198Z,53.60
2022-10-28T01:31:44.603Z,61.30
2022-10-28T01:34:36.012Z,59.50
2022-10-28T01:37:23.621Z,52.80
2022-10-28T01:40:00.205Z,55.80
2022-10-28T01:43:06.888Z,48.90
2022-10-28T01:45:54.173Z,49.80
2022-10-28T01:48:33.881Z,54.40
2022-10-28T01:51:15.703Z,55.00
2022-10-28T01:53:49.146Z,53.20
2022-10-28T01:56:25.477Z,50.70
2022-10-28T01:58:59.400Z,59.20
2022-10-28T02:01:30.878Z,49.90
2022-10-28T02:03:58.699Z,52.10
2022-10-28T02:06:31.356Z,50.80
2022-10-28T02:09:29.967Z,62.60
2022-10-28T02:12:21.981Z,47.20
2022-10-28T02:15:10.999Z,56.70
2022-10-28T02:17:55.456Z,54.70
2022-10-28T02:20:36.576Z,50.60
2022-10-28T02:23:59.125Z,45.90
2022-10-28T02:26:43.480Z,53.00
2022-10-28T02:29:33.389Z,44.50
2022-10-28T02:32:18.553Z,50.50
2022-10-28T02:34:50.952Z,44.10
2022-10-28T02:37:29.544Z,47.00
2022-10-28T02:40:04.267Z,44.90
2022-10-28T02:42:45.893Z,47.10
2022-10-28T02:45:31.271Z,51.30
2022-10-28T02:48:07.859Z,43.80
2022-10-28T02:50:42.523Z,44.40
2022-10-28T02:53:41.697Z,36.20
2022-10-28T02:56:11.628Z,43.00
2022-10-28T02:58:40.900Z,42.00
2022-10-28T03:01:08.573Z,45.10
2022-10-28T03:03:36.408Z,43.70
2022-10-28T03:06:04.109Z,42.50
2022-10-28T03:08:31.724Z,34.30
2022-10-28T03:10:59.336Z,36.10
2022-10-28T03:13:26.898Z,34.40
2022-10-28T03:15:54.441Z,44.80
2022-10-28T03:18:22.089Z,38.70
2022-10-28T03:20:49.729Z,44.40
2022-10-28T03:23:17.336Z,40.00
2022-10-28T03:25:44.926Z,35.90
2022-10-28T03:28:12.469Z,33.60
2022-10-28T03:30:40.116Z,39.40
2022-10-28T03:33:07.695Z,37.70
2022-10-28T03:35:35.276Z,41.50
2022-10-28T03:38:03.036Z,39.70
2022-10-28T03:40:31.217Z,37.80
2022-10-28T03:42:58.721Z,34.50
2022-10-28T03:45:26.298Z,30.10
2022-10-28T03:47:54.016Z,35.20
2022-10-28T03:50:21.974Z,35.60
2022-10-28T03:52:49.496Z,31.70
2022-10-28T03:55:17.541Z,37.10
2022-10-28T03:57:45.114Z,34.40
2022-10-28T04:00:13.883Z,37.50
2022-10-28T04:02:41.544Z,35.50
2022-10-28T04:05:09.553Z,39.70
2022-10-28T04:07:37.080Z,37.80
2022-10-28T04:10:05.160Z,35.90
2022-10-28T04:12:32.792Z,33.70
2022-10-28T04:15:00.422Z,38.50
2022-10-28T04:17:28.075Z,33.40
2022-10-28T04:19:55.717Z,31.10
2022-10-28T04:22:23.371Z,39.40
2022-10-28T04:24:50.964Z,34.40
2022-10-28T04:27:18.498Z,39.50
2022-10-28T04:29:46.280Z,35.40
2022-10-28T04:32:13.817Z,28.80
2022-10-28T04:34:41.437Z,35.60
2022-10-28T04:37:09.041Z,31.20
2022-10-28T04:39:36.717Z,36.00
2022-10-28T04:42:04.365Z,31.30
2022-10-28T04:44:31.969Z,30.60
2022-10-28T04:46:59.628Z,29.70
2022-10-28T04:49:27.243Z,30.90
2022-10-28T04:51:54.950Z,30.70
2022-10-28T04:54:22.533Z,35.40
2022-10-28T04:56:50.280Z,36.60
2022-10-28T04:59:17.850Z,36.00
2022-10-28T05:01:45.621Z,29.60
2022-10-28T05:04:13.358Z,28.10
2022-10-28T05:06:41.043Z,34.40
2022-10-28T05:09:08.652Z,30.50
2022-10-28T05:11:36.277Z,32.30
2022-10-28T05:14:04.591Z,28.80
2022-10-28T05:16:32.221Z,25.00
2022-10-28T05:19:00.156Z,26.90
2022-10-28T05:21:27.730Z,31.10
2022-10-28T05:23:55.420Z,29.50
2022-10-28T05:26:23.206Z,30.10
2022-10-28T05:28:51.289Z,31.90
2022-10-28T05:31:18.919Z,27.40
2022-10-28T05:33:46.528Z,29.10
2022-10-28T05:36:14.090Z,28.60
2022-10-28T05:38:45.500Z,27.30
2022-10-28T05:41:13.219Z,28.70
2022-10-28T05:43:40.763Z,28.00
2022-10-28T05:46:09.459Z,27.50
2022-10-28T05:48:37.155Z,28.60
2022-10-28T05:51:04.933Z,28.90
2022-10-28T05:53:32.815Z,25.90
2022-10-28T05:56:00.509Z,27.80
2022-10-28T05:58:28.215Z,27.70
2022-10-28T06:00:55.904Z,32.40
2022-10-28T06:03:28.537Z,32.90
2022-10-28T06:05:59.355Z,28.50
2022-10-28T06:08:27.894Z,25.70
2022-10-28T06:10:54.070Z,27.30
2022-10-28T06:13:22.155Z,26.00
2022-10-28T06:15:55.204Z,31.80
2022-10-28T06:18:23.383Z,29.00
2022-10-28T06:20:57.128Z,29.60
2022-10-28T06:23:27.646Z,32.50
2022-10-28T06:26:01.562Z,29.40
2022-10-28T06:28:30.654Z,28.20
2022-10-28T06:31:03.864Z,31.80
2022-10-28T06:33:31.890Z,30.00
2022-10-28T06:36:00.910Z,30.00
2022-10-28T06:38:28.828Z,29.50
2022-10-28T06:41:00.205Z,27.90
2022-10-28T06:43:27.900Z,26.70
2022-10-28T06:45:59.798Z,33.80
2022-10-28T06:48:28.936Z,23.80
2022-10-28T06:50:58.072Z,28.90
2022-10-28T06:53:26.281Z,25.80
2022-10-28T06:55:56.788Z,25.40
2022-10-28T06:58:26.263Z,23.80
2022-10-28T07:00:55.963Z,23.40
2022-10-28T07:03:22.708Z,23.80
2022-10-28T07:05:51.601Z,26.20
2022-10-28T07:08:19.929Z,22.60
2022-10-28T07:10:56.298Z,23.40
2022-10-28T07:13:25.085Z,24.00
2022-10-28T07:15:58.798Z,16.20
2022-10-28T07:18:29.605Z,22.60
2022-10-28T07:21:01.610Z,21.20
2022-10-28T07:23:32.929Z,21.00
2022-10-28T07:26:01.133Z,23.90
2022-10-28T07:28:29.351Z,18.10
2022-10-28T07:31:04.464Z,19.60
2022-10-28T07:33:32.056Z,21.40
2022-10-28T07:35:59.816Z,18.80
2022-10-28T07:38:27.538Z,16.30
2022-10-28T07:40:55.141Z,20.80
2022-10-28T07:43:23.084Z,16.70
2022-10-28T07:45:58.396Z,15.90
2022-10-28T07:48:26.142Z,17.80
2022-10-28T07:50:54.141Z,18.90
2022-10-28T07:53:23.686Z,15.20
2022-10-28T07:56:02.527Z,14.80
2022-10-28T07:58:30.842Z,14.10
2022-10-28T08:01:07.579Z,16.40
2022-10-28T08:03:39.032Z,14.70
2022-10-28T08:06:20.082Z,16.10
2022-10-28T08:08:55.912Z,15.30
2022-10-28T08:11:24.601Z,14.00
2022-10-28T08:13:53.666Z,16.20
2022-10-28T08:16:21.299Z,14.20
2022-10-28T08:18:48.917Z,17.20
2022-10-28T08:21:16.969Z,14.60
2022-10-28T08:23:47.692Z,13.70
2022-10-28T08:26:16.998Z,19.10
2022-10-28T08:28:44.730Z,19.20
2022-10-28T08:31:12.871Z,14.50
2022-10-28T08:33:45.151Z,14.80
2022-10-28T08:36:17.054Z,16.00
2022-10-28T08:38:46.802Z,12.30
2022-10-28T08:42:00.592Z,14.70
2022-10-28T08:45:15.899Z,17.20
2022-10-28T08:48:08.991Z,12.50
2022-10-28T08:50:50.979Z,13.50
2022-10-28T08:53:31.711Z,21.70
2022-10-28T08:56:31.655Z,13.70
2022-10-28T08:59:04.665Z,18.00
2022-10-28T09:01:49.461Z,15.20
2022-10-28T09:04:37.451Z,14.80
2022-10-28T09:07:09.575Z,11.90
2022-10-28T09:09:38.776Z,13.30
2022-10-28T09:12:35.646Z,11.20
2022-10-28T09:15:18.037Z,12.30
2022-10-28T09:17:56.777Z,12.40
2022-10-28T09:20:59.879Z,12.20
2022-10-28T09:23:33.377Z,9.50
2022-10-28T09:26:29.290Z,9.90
2022-10-28T09:29:19.671Z,12.50
2022-10-28T09:32:05.197Z,11.80
2022-10-28T09:34:38.856Z,11.60
2022-10-28T09:37:17.990Z,8.70
2022-10-28T09:39:53.186Z,9.60
2022-10-28T09:45:23.626Z,12.40
2022-10-28T09:48:03.167Z,9.40
2022-10-28T09:50:33.240Z,12.10
2022-10-28T09:53:36.254Z,13.00
2022-10-28T09:56:06.481Z,10.20
2022-10-28T09:58:36.478Z,8.60
2022-10-28T10:01:05.047Z,9.60
2022-10-28T10:03:33.118Z,14.40
2022-10-28T10:06:14.029Z,10.50
2022-10-28T10:08:42.840Z,9.70
2022-10-28T10:11:46.318Z,8.90
2022-10-28T10:14:38.871Z,9.30
2022-10-28T10:17:16.940Z,10.50
2022-10-28T10:20:12.351Z,14.30
2022-10-28T10:22:42.575Z,10.40
2022-10-28T10:25:19.548Z,8.50
2022-10-28T10:28:14.587Z,9.50
2022-10-28T10:31:10.712Z,10.50
2022-10-28T10:33:40.749Z,6.90
2022-10-28T10:36:11.555Z,8.40
2022-10-28T10:38:49.289Z,6.90
2022-10-28T10:41:39.620Z,9.20
2022-10-28T10:44:22.734Z,6.50
2022-10-28T10:47:16.892Z,7.80
2022-10-28T10:49:44.494Z,9.00
2022-10-28T10:52:23.841Z,8.80
2022-10-28T10:55:19.136Z,7.80
2022-10-28T10:57:49.073Z,9.40
2022-10-28T11:00:21.529Z,9.30
2022-10-28T11:02:53.556Z,7.90
2022-10-28T11:05:27.209Z,7.80
2022-10-28T11:08:05.090Z,9.60
2022-10-28T11:10:35.311Z,7.70
2022-10-28T11:13:27.123Z,8.60
2022-10-28T11:16:05.783Z,12.30
2022-10-28T11:18:53.276Z,7.00
2022-10-28T11:21:36.970Z,8.10
2022-10-28T11:24:41.977Z,7.00
2022-10-28T11:27:56.309Z,9.90
2022-10-28T11:30:47.742Z,7.70
2022-10-28T11:33:30.067Z,14.70
2022-10-28T11:36:30.419Z,8.10
2022-10-28T11:39:37.375Z,8.00
2022-10-28T11:42:23.851Z,9.20
2022-10-28T11:45:03.835Z,7.30
2022-10-28T11:48:01.207Z,8.50
2022-10-28T11:50:42.623Z,6.60
2022-10-28T11:53:41.792Z,6.90
2022-10-28T11:56:49.587Z,5.90
2022-10-28T11:59:39.932Z,7.90
2022-10-28T12:02:25.936Z,8.00
2022-10-28T12:05:18.841Z,9.20
2022-10-28T12:08:05.275Z,7.60
2022-10-28T12:10:47.642Z,8.00
2022-10-28T12:13:35.078Z,7.40
2022-10-28T12:16:46.168Z,6.30
2022-10-28T12:19:24.292Z,9.20
2022-10-28T12:22:55.716Z,6.90
2022-10-28T12:25:35.692Z,6.50
2022-10-28T12:28:44.887Z,8.20
2022-10-28T12:31:31.652Z,6.40
2022-10-28T12:34:09.131Z,7.20
2022-10-28T12:36:48.167Z,7.00
2022-10-28T12:39:25.557Z,9.10
2022-10-28T12:42:18.423Z,7.00
2022-10-28T12:44:52.841Z,5.90
2022-10-28T12:47:37.845Z,6.30
2022-10-28T12:50:08.408Z,7.90
2022-10-28T12:52:59.772Z,6.50
2022-10-28T12:55:47.986Z,5.60
2022-10-28T12:58:42.238Z,5.00
2022-10-28T13:01:18.294Z,6.00
2022-10-28T13:03:45.992Z,5.20
2022-10-28T13:06:28.806Z,8.10
2022-10-28T13:09:46.993Z,7.10
2022-10-28T13:12:42.075Z,4.60
2022-10-28T13:15:16.272Z,8.00
2022-10-28T13:18:05.454Z,8.10
2022-10-28T13:21:19.727Z,6.80
2022-10-28T13:24:11.571Z,6.70
2022-10-28T13:26:44.617Z,5.70
2022-10-28T13:29:24.187Z,6.70
2022-10-28T13:31:54.355Z,7.40
2022-10-28T13:34:33.814Z,4.80
2022-10-28T13:37:06.666Z,6.30
2022-10-28T13:39:37.727Z,5.70
2022-10-28T13:42:14.838Z,8.20
2022-10-28T13:45:02.525Z,7.10
2022-10-28T13:47:37.776Z,6.60
2022-10-28T13:50:08.822Z,7.90
2022-10-28T13:52:45.476Z,7.40
2022-10-28T13:55:18.956Z,5.40
2022-10-28T13:57:49.772Z,6.80
2022-10-28T14:00:17.384Z,7.90
2022-10-28T14:03:21.354Z,8.60
2022-10-28T14:05:48.993Z,6.10
2022-10-28T14:08:28.746Z,9.10
2022-10-28T14:11:11.462Z,12.80
2022-10-28T14:13:49.150Z,9.00
2022-10-28T14:16:24.676Z,8.40
2022-10-28T14:19:04.037Z,10.30
2022-10-28T14:21:50.821Z,7.90
2022-10-28T14:24:41.310Z,8.90
2022-10-28T14:27:08.988Z,28.70
2022-10-28T14:30:10.287Z,17.70
2022-10-28T14:32:43.567Z,30.10
2022-10-28T14:35:12.929Z,10.90
2022-10-28T14:38:20.860Z,8.10
2022-10-28T14:40:54.217Z,8.90
2022-10-28T14:43:59.241Z,6.70
2022-10-28T14:46:46.912Z,9.60
2022-10-28T14:49:30.944Z,10.40
2022-10-28T14:52:08.850Z,10.60
2022-10-28T14:54:47.565Z,15.80
2022-10-28T14:57:22.216Z,50.50
2022-10-28T14:59:51.775Z,15.00
2022-10-28T15:02:29.853Z,7.30
2022-10-28T15:05:20.355Z,10.20
2022-10-28T15:07:48.495Z,9.70
2022-10-28T15:10:25.998Z,13.60
2022-10-28T15:12:57.221Z,12.30
2022-10-28T15:15:29.867Z,11.90
2022-10-28T15:18:00.104Z,15.40
2022-10-28T15:20:35.704Z,15.20
2022-10-28T15:23:17.344Z,11.50
2022-10-28T15:25:45.614Z,12.00
2022-10-28T15:28:14.206Z,8.40
2022-10-28T15:30:46.624Z,12.80
2022-10-28T15:33:31.643Z,12.10
2022-10-28T15:36:22.560Z,19.40
2022-10-28T15:39:17.597Z,28.60
2022-10-28T15:41:55.346Z,10.40
2022-10-28T15:44:34.634Z,10.70
2022-10-28T15:47:23.357Z,9.70
2022-10-28T15:50:17.397Z,16.40
2022-10-28T15:52:48.247Z,12.90
2022-10-28T15:55:18.403Z,12.60
2022-10-28T15:57:52.970Z,12.40
2022-10-28T16:00:32.552Z,11.10
2022-10-28T16:03:05.331Z,11.10
2022-10-28T16:05:33.223Z,17.30
2022-10-28T16:08:07.232Z,13.80
2022-10-28T16:10:43.992Z,16.30
2022-10-28T16:13:24.807Z,17.90
2022-10-28T16:16:03.069Z,20.40
2022-10-28T16:18:38.935Z,19.50
2022-10-28T16:21:07.492Z,17.70
2022-10-28T16:23:40.173Z,15.40
2022-10-28T16:26:12.303Z,16.20
2022-10-28T16:28:44.978Z,13.60
2022-10-28T16:31:17.546Z,14.40
2022-10-28T16:33:45.719Z,15.10
2022-10-28T16:36:14.454Z,15.40
2022-10-28T16:38:42.263Z,12.70
2022-10-28T16:41:19.845Z,16.80
2022-10-28T16:43:47.512Z,13.70
2022-10-28T16:46:15.191Z,13.30
2022-10-28T16:48:42.827Z,13.40
2022-10-28T16:51:18.152Z,11.00
2022-10-28T16:53:50.830Z,10.00
2022-10-28T16:56:18.590Z,13.90
2022-10-28T16:58:46.808Z,13.40
2022-10-28T17:01:20.751Z,12.00
2022-10-28T17:03:48.485Z,13.90
2022-10-28T17:06:16.060Z,14.30
2022-10-28T17:14:04.167Z,16.70
2022-10-28T17:16:31.819Z,13.10
2022-10-28T17:18:59.639Z,16.70
2022-10-28T17:21:27.935Z,13.40
2022-10-28T17:23:55.639Z,13.30
2022-10-28T17:26:23.313Z,12.80
2022-10-28T17:28:52.558Z,13.00
2022-10-28T17:31:23.921Z,11.20
2022-10-28T17:33:54.873Z,14.00
2022-10-28T17:36:23.334Z,14.10
2022-10-28T17:38:51.060Z,12.20
2022-10-28T17:41:19.268Z,12.40
2022-10-28T17:43:46.824Z,15.40
2022-10-28T17:46:14.439Z,16.20
2022-10-28T17:48:42.078Z,22.50
2022-10-28T17:51:09.681Z,19.60
2022-10-28T17:53:37.497Z,16.70
2022-10-28T17:56:07.280Z,18.50
2022-10-28T17:58:35.517Z,17.80
2022-10-28T18:01:07.716Z,22.70
2022-10-28T18:03:38.544Z,16.60
2022-10-28T18:06:11.843Z,18.10
2022-10-28T18:08:42.444Z,16.80
2022-10-28T18:11:14.106Z,14.80
2022-10-28T18:13:55.977Z,12.90
2022-10-28T18:16:28.051Z,13.90
2022-10-28T18:18:56.470Z,15.00
2022-10-28T18:21:24.663Z,14.50
2022-10-28T18:23:53.831Z,15.60
2022-10-28T18:26:21.950Z,16.80
2022-10-28T18:28:49.706Z,17.20
2022-10-28T18:31:20.311Z,17.50
2022-10-28T18:33:49.095Z,18.00
2022-10-28T18:36:21.366Z,22.40
2022-10-28T18:38:50.809Z,24.00
2022-10-28T18:41:25.194Z,25.10
2022-10-28T18:43:59.746Z,22.80
2022-10-28T18:46:29.964Z,20.30
2022-10-28T18:48:57.766Z,21.00
2022-10-28T18:51:25.673Z,15.00
2022-10-28T18:53:55.049Z,13.60
2022-10-28T18:56:26.220Z,14.90
2022-10-28T18:58:55.170Z,13.80
2022-10-28T19:01:28.444Z,13.90
2022-10-28T19:04:05.145Z,13.20
2022-10-28T19:06:33.792Z,12.90
2022-10-28T19:09:04.737Z,11.90
2022-10-28T19:11:34.614Z,14.90
2022-10-28T19:14:05.702Z,11.50
2022-10-28T19:16:35.762Z,14.10
2022-10-28T19:19:04.958Z,12.70
2022-10-28T19:21:33.917Z,12.60
2022-10-28T19:24:01.702Z,13.20
2022-10-28T19:26:31.993Z,11.70
2022-10-28T19:28:59.859Z,16.00
2022-10-28T19:31:27.720Z,16.00
2022-10-28T19:33:55.564Z,13.10
2022-10-28T19:36:29.365Z,12.60
2022-10-28T19:38:58.139Z,15.20
2022-10-28T19:41:29.746Z,11.60
2022-10-28T19:44:00.888Z,9.90
2022-10-28T19:46:34.769Z,12.80
2022-10-28T19:49:05.800Z,14.20
2022-10-28T19:51:37.465Z,15.00
2022-10-28T19:54:15.150Z,15.50
2022-10-28T19:56:44.541Z,13.00
2022-10-28T19:59:12.136Z,15.00
2022-10-28T20:01:41.012Z,13.10
2022-10-28T20:04:10.135Z,14.90
2022-10-28T20:06:40.851Z,13.70
2022-10-28T20:09:08.862Z,14.60
2022-10-28T20:11:38.836Z,15.20
2022-10-28T20:14:12.732Z,12.90
2022-10-28T20:16:43.605Z,14.60
2022-10-28T20:19:12.232Z,16.20
2022-10-28T20:21:40.115Z,13.70
2022-10-28T20:24:08.841Z,9.90
2022-10-28T20:26:38.837Z,13.20
2022-10-28T20:29:08.687Z,14.60
2022-10-28T20:31:38.947Z,14.20
2022-10-28T20:34:08.037Z,17.40
2022-10-28T20:36:44.120Z,14.70
2022-10-28T20:39:15.655Z,13.10
2022-10-28T20:41:45.828Z,15.40
2022-10-28T20:44:14.456Z,12.70
2022-10-28T20:46:44.992Z,13.40
2022-10-28T20:49:13.412Z,10.50
2022-10-28T20:51:42.008Z,12.70
2022-10-28T20:54:09.738Z,15.60
2022-10-28T20:56:40.315Z,15.90
2022-10-28T20:59:08.395Z,15.70
2022-10-28T21:01:40.769Z,15.10
2022-10-28T21:04:11.437Z,13.90
2022-10-28T21:06:40.766Z,16.70
2022-10-28T21:09:09.152Z,12.40
2022-10-28T21:11:37.070Z,12.90
2022-10-28T21:14:04.743Z,14.60
2022-10-28T21:16:32.639Z,15.30
2022-10-28T21:19:00.345Z,19.60
2022-10-28T21:21:30.343Z,13.50
2022-10-28T21:24:00.333Z,14.90
2022-10-28T21:26:27.920Z,18.70
2022-10-28T21:28:56.375Z,18.80
2022-10-28T21:31:24.843Z,15.20
2022-10-28T21:33:53.519Z,13.80
2022-10-28T21:36:22.789Z,15.80
2022-10-28T21:38:57.824Z,17.00
2022-10-28T21:41:25.580Z,16.30
2022-10-28T21:43:54.362Z,17.40
2022-10-28T21:46:23.387Z,13.50
2022-10-28T21:48:52.609Z,14.50
2022-10-28T21:51:20.195Z,17.80
2022-10-28T21:53:47.851Z,14.70
2022-10-28T21:56:19.417Z,11.90
2022-10-28T21:58:49.920Z,15.90
2022-10-28T22:01:22.498Z,16.90
2022-10-28T22:03:54.398Z,16.30
2022-10-28T22:06:22.997Z,15.70
2022-10-28T22:08:55.626Z,18.20
2022-10-28T22:11:24.106Z,14.70
2022-10-28T22:13:59.693Z,14.10
2022-10-28T22:16:30.524Z,15.90
2022-10-28T22:19:00.432Z,14.90
2022-10-28T22:21:32.114Z,14.60
2022-10-28T22:23:59.999Z,16.30
2022-10-28T22:26:30.466Z,16.10
2022-10-28T22:28:58.595Z,16.60
2022-10-28T22:31:33.831Z,14.40
2022-10-28T22:34:02.349Z,16.20
2022-10-28T22:36:30.311Z,17.10
2022-10-28T22:38:58.688Z,16.40
2022-10-28T22:41:29.908Z,15.30
2022-10-28T22:44:01.071Z,15.60
2022-10-28T22:46:33.735Z,18.70
2022-10-28T22:49:01.359Z,15.60
2022-10-28T22:51:29.009Z,17.00
2022-10-28T22:53:57.246Z,14.70
2022-10-28T22:56:27.416Z,17.10
2022-10-28T22:58:58.619Z,12.20
2022-10-28T23:01:28.861Z,16.30
2022-10-28T23:03:56.899Z,16.40
2022-10-28T23:06:27.560Z,14.60
2022-10-28T23:08:55.887Z,14.20
2022-10-28T23:11:23.687Z,13.10
2022-10-28T23:13:53.882Z,17.10
2022-10-28T23:16:23.627Z,16.30
2022-10-28T23:18:53.191Z,18.00
2022-10-28T23:21:24.397Z,15.60
2022-10-28T23:23:57.870Z,11.90
2022-10-28T23:26:28.367Z,14.20
2022-10-28T23:28:59.126Z,15.50
2022-10-28T23:31:27.729Z,15.80
2022-10-28T23:33:55.615Z,17.20
2022-10-28T23:36:23.497Z,18.30
2022-10-28T23:38:51.788Z,13.80
2022-10-28T23:41:21.029Z,14.10
2022-10-28T23:43:49.373Z,16.60
2022-10-28T23:46:17.918Z,15.30
2022-10-28T23:48:45.505Z,16.70
2022-10-28T23:51:13.106Z,18.40
2022-10-28T23:53:40.758Z,15.10
2022-10-28T23:56:08.786Z,16.50
2022-10-28T23:58:36.452Z,15.30
